createdAt,value
2019-03-20T00:00:59.734Z,51.07
2019-03-20T00:03:25.765Z,51.41
2019-03-20T00:05:51.619Z,51.32
2019-03-20T00:08:17.468Z,51.49
2019-03-20T00:10:43.352Z,51.35
2019-03-20T00:13:09.190Z,51.03
2019-03-20T00:15:35.192Z,51.34
2019-03-20T00:18:01.034Z,51.49
2019-03-20T00:20:26.882Z,51.81
2019-03-20T00:22:52.874Z,51.69
2019-03-20T00:25:18.715Z,51.83
2019-03-20T00:27:44.661Z,52.12
2019-03-20T00:30:14.297Z,51.80
2019-03-20T00:32:40.575Z,51.52
2019-03-20T00:35:06.651Z,51.90
2019-03-20T00:37:32.639Z,52.34
2019-03-20T00:39:58.597Z,52.51
2019-03-20T00:42:24.500Z,52.56
2019-03-20T00:44:50.339Z,52.95
2019-03-20T00:47:16.279Z,53.40
2019-03-20T00:49:42.520Z,53.56
2019-03-20T00:52:08.351Z,54.09
2019-03-20T00:54:34.347Z,54.25
2019-03-20T00:57:00.467Z,54.78
2019-03-20T00:59:26.420Z,55.34
2019-03-20T01:01:52.274Z,55.62
2019-03-20T01:04:18.172Z,55.51
2019-03-20T01:06:44.003Z,55.40
2019-03-20T01:09:09.937Z,54.92
2019-03-20T01:11:35.808Z,55.04
2019-03-20T01:14:01.755Z,54.96
2019-03-20T01:16:27.740Z,55.20
2019-03-20T01:18:53.574Z,55.20
2019-03-20T01:21:19.409Z,55.71
2019-03-20T01:23:45.288Z,55.88
2019-03-20T01:26:11.241Z,55.53
2019-03-20T01:28:37.202Z,55.26
2019-03-20T01:31:03.278Z,55.22
2019-03-20T01:33:29.112Z,54.92
2019-03-20T01:35:55.002Z,54.85
2019-03-20T01:38:20.972Z,55.10
2019-03-20T01:40:46.805Z,54.95
2019-03-20T01:43:12.807Z,54.95
2019-03-20T01:45:38.961Z,55.30
2019-03-20T01:48:05.078Z,55.22
2019-03-20T01:50:31.081Z,55.19
2019-03-20T01:52:56.934Z,55.08
2019-03-20T01:55:26.809Z,55.04
2019-03-20T01:57:52.958Z,55.12
2019-03-20T02:00:18.905Z,55.44
2019-03-20T02:02:44.833Z,55.13
2019-03-20T02:05:11.129Z,55.12
2019-03-20T02:07:36.988Z,55.17
2019-03-20T02:10:09.104Z,55.25
2019-03-20T02:12:35.051Z,55.33
2019-03-20T02:15:00.884Z,55.62
2019-03-20T02:17:26.783Z,55.58
2019-03-20T02:19:52.728Z,56.02
2019-03-20T02:22:18.609Z,56.04
2019-03-20T02:24:44.607Z,55.69
2019-03-20T02:27:10.429Z,56.06
2019-03-20T02:29:36.276Z,56.23
2019-03-20T02:32:02.255Z,56.24
2019-03-20T02:34:28.218Z,56.02
2019-03-20T02:36:54.273Z,55.90
2019-03-20T02:39:20.349Z,55.94
2019-03-20T02:41:46.410Z,56.08
2019-03-20T02:44:12.432Z,56.13
2019-03-20T02:46:38.376Z,56.43
2019-03-20T02:49:04.373Z,56.42
2019-03-20T02:51:30.432Z,56.12
2019-03-20T02:53:56.372Z,56.35
2019-03-20T02:56:22.210Z,56.59
2019-03-20T02:58:48.235Z,56.33
2019-03-20T03:01:14.197Z,56.23
2019-03-20T03:03:40.316Z,55.82
2019-03-20T03:06:07.567Z,55.64
2019-03-20T03:08:33.681Z,55.42
2019-03-20T03:10:59.646Z,55.60
2019-03-20T03:13:25.501Z,55.21
2019-03-20T03:15:51.503Z,55.17
2019-03-20T03:18:17.354Z,54.87
2019-03-20T03:20:43.190Z,54.80
2019-03-20T03:23:09.192Z,54.71
2019-03-20T03:25:35.332Z,55.77
2019-03-20T03:28:01.253Z,55.77
2019-03-20T03:30:27.078Z,55.58
2019-03-20T03:32:53.041Z,55.72
2019-03-20T03:35:20.220Z,55.90
2019-03-20T03:37:46.561Z,56.29
2019-03-20T03:40:16.455Z,56.40
2019-03-20T03:42:42.831Z,56.49
2019-03-20T03:45:15.736Z,56.55
2019-03-20T03:47:41.780Z,56.49
2019-03-20T03:50:09.079Z,56.71
2019-03-20T03:52:35.151Z,56.72
2019-03-20T03:55:01.107Z,57.01
2019-03-20T03:57:27.425Z,57.28
2019-03-20T03:59:56.557Z,57.40
2019-03-20T04:02:22.644Z,57.74
2019-03-20T04:04:48.804Z,58.27
2019-03-20T04:07:14.704Z,58.27
2019-03-20T04:09:40.650Z,58.70
2019-03-20T04:12:06.560Z,58.42
2019-03-20T04:14:32.550Z,59.04
2019-03-20T04:16:58.388Z,59.38
2019-03-20T04:19:24.431Z,59.79
2019-03-20T04:21:50.293Z,59.61
2019-03-20T04:24:16.216Z,59.61
2019-03-20T04:26:42.310Z,59.76
2019-03-20T04:29:08.175Z,59.66
2019-03-20T04:31:34.030Z,59.66
2019-03-20T04:33:59.895Z,59.76
2019-03-20T04:36:25.930Z,59.59
2019-03-20T04:38:51.928Z,59.58
2019-03-20T04:41:17.901Z,59.91
2019-03-20T04:43:43.837Z,59.73
2019-03-20T04:46:09.883Z,59.57
2019-03-20T04:48:35.822Z,58.84
2019-03-20T04:51:01.694Z,58.84
2019-03-20T04:53:27.580Z,59.25
2019-03-20T04:55:53.574Z,59.60
2019-03-20T04:58:19.526Z,59.96
2019-03-20T05:00:49.027Z,60.28
2019-03-20T05:03:14.860Z,60.43
2019-03-20T05:05:40.882Z,60.42
2019-03-20T05:08:06.732Z,60.25
2019-03-20T05:10:32.579Z,60.21
2019-03-20T05:12:58.573Z,60.40
2019-03-20T05:15:24.430Z,60.32
2019-03-20T05:17:50.442Z,60.32
2019-03-20T05:20:20.388Z,60.19
2019-03-20T05:22:46.463Z,60.19
2019-03-20T05:25:12.542Z,60.45
2019-03-20T05:27:38.613Z,60.15
2019-03-20T05:30:07.767Z,59.80
2019-03-20T05:32:33.610Z,59.54
2019-03-20T05:34:59.606Z,59.69
2019-03-20T05:37:25.622Z,59.89
2019-03-20T05:39:51.509Z,59.85
2019-03-20T05:42:17.406Z,59.89
2019-03-20T05:44:43.454Z,59.88
2019-03-20T05:47:09.311Z,60.11
2019-03-20T05:49:35.126Z,60.11
2019-03-20T05:52:01.130Z,60.13
2019-03-20T05:54:27.116Z,60.29
2019-03-20T05:56:52.917Z,60.25
2019-03-20T05:59:19.051Z,59.96
2019-03-20T06:01:45.319Z,59.50
2019-03-20T06:04:11.185Z,59.37
2019-03-20T06:06:37.039Z,59.27
2019-03-20T06:09:05.622Z,59.36
2019-03-20T06:11:31.776Z,58.81
2019-03-20T06:13:57.622Z,58.81
2019-03-20T06:16:23.549Z,59.29
2019-03-20T06:18:49.374Z,58.66
2019-03-20T06:21:15.523Z,58.58
2019-03-20T06:23:41.401Z,58.43
2019-03-20T06:26:07.266Z,58.28
2019-03-20T06:28:33.108Z,57.79
2019-03-20T06:30:59.084Z,57.50
2019-03-20T06:33:24.880Z,57.57
2019-03-20T06:35:50.883Z,57.46
2019-03-20T06:38:16.843Z,56.84
2019-03-20T06:40:42.821Z,56.34
2019-03-20T06:43:08.644Z,56.12
2019-03-20T06:45:34.494Z,55.43
2019-03-20T06:48:01.016Z,55.36
2019-03-20T06:50:26.859Z,55.16
2019-03-20T06:52:52.973Z,54.58
2019-03-20T06:55:19.019Z,54.75
2019-03-20T06:57:45.046Z,54.71
2019-03-20T07:00:33.243Z,55.23
2019-03-20T07:03:18.636Z,54.59
2019-03-20T07:06:03.293Z,53.56
2019-03-20T07:08:39.143Z,53.56
2019-03-20T07:11:04.896Z,53.46
2019-03-20T07:13:30.716Z,52.66
2019-03-20T07:15:56.748Z,52.17
2019-03-20T07:18:22.549Z,51.96
2019-03-20T07:20:48.404Z,51.86
2019-03-20T07:23:14.352Z,51.61
2019-03-20T07:25:40.166Z,51.62
2019-03-20T07:28:06.007Z,51.35
2019-03-20T07:30:31.857Z,51.13
2019-03-20T07:32:57.691Z,50.50
2019-03-20T07:35:23.698Z,50.13
2019-03-20T07:37:55.969Z,50.49
2019-03-20T07:40:17.523Z,50.16
2019-03-20T07:42:43.446Z,50.01
2019-03-20T07:45:09.392Z,49.50
2019-03-20T07:47:35.245Z,49.42
2019-03-20T07:50:01.545Z,49.07
2019-03-20T07:52:27.451Z,48.81
2019-03-20T07:54:54.791Z,48.67
2019-03-20T07:57:20.896Z,48.10
2019-03-20T07:59:46.754Z,47.67
2019-03-20T08:02:12.590Z,46.98
2019-03-20T08:04:38.640Z,47.40
2019-03-20T08:07:04.585Z,46.81
2019-03-20T08:09:30.702Z,46.54
2019-03-20T08:11:56.662Z,46.43
2019-03-20T08:14:22.501Z,45.86
2019-03-20T08:16:48.494Z,45.55
2019-03-20T08:19:14.317Z,45.50
2019-03-20T08:21:41.560Z,45.41
2019-03-20T08:24:07.456Z,44.46
2019-03-20T08:26:33.380Z,44.22
2019-03-20T08:28:59.296Z,43.85
2019-03-20T08:31:25.214Z,43.64
2019-03-20T08:33:51.071Z,43.50
2019-03-20T08:36:17.159Z,43.86
2019-03-20T08:38:42.992Z,43.05
2019-03-20T08:41:09.028Z,42.73
2019-03-20T08:43:34.912Z,41.62
2019-03-20T08:46:00.826Z,41.27
2019-03-20T08:48:26.968Z,41.06
2019-03-20T08:50:52.914Z,39.60
2019-03-20T08:53:18.826Z,39.87
2019-03-20T08:55:44.837Z,38.94
2019-03-20T08:58:10.792Z,37.94
2019-03-20T09:00:36.631Z,37.62
2019-03-20T09:03:02.741Z,37.56
2019-03-20T09:05:28.742Z,37.66
2019-03-20T09:07:54.525Z,37.48
2019-03-20T09:10:21.533Z,36.85
2019-03-20T09:12:47.568Z,36.86
2019-03-20T09:15:14.804Z,36.98
2019-03-20T09:17:40.780Z,36.68
2019-03-20T09:20:10.321Z,36.62
2019-03-20T09:22:36.364Z,36.45
2019-03-20T09:25:05.272Z,36.81
2019-03-20T09:27:31.099Z,36.37
2019-03-20T09:29:57.042Z,35.70
2019-03-20T09:32:22.988Z,35.52
2019-03-20T09:34:48.829Z,35.76
2019-03-20T09:37:14.672Z,35.54
2019-03-20T09:39:40.643Z,34.56
2019-03-20T09:42:06.574Z,35.06
2019-03-20T09:44:32.536Z,35.16
2019-03-20T09:46:58.428Z,34.90
2019-03-20T09:49:24.291Z,34.95
2019-03-20T09:51:50.299Z,34.99
2019-03-20T09:54:16.426Z,35.51
2019-03-20T09:56:42.279Z,34.74
2019-03-20T09:59:08.246Z,34.44
2019-03-20T10:01:34.079Z,34.50
2019-03-20T10:04:00.037Z,35.10
2019-03-20T10:06:26.015Z,34.87
2019-03-20T10:08:54.296Z,34.60
2019-03-20T10:11:19.795Z,35.17
2019-03-20T10:13:45.684Z,34.17
2019-03-20T10:16:11.642Z,33.87
2019-03-20T10:18:37.586Z,33.99
2019-03-20T10:21:03.576Z,34.34
2019-03-20T10:23:29.409Z,34.48
2019-03-20T10:25:55.285Z,34.36
2019-03-20T10:28:21.129Z,33.75
2019-03-20T10:30:47.184Z,33.96
2019-03-20T10:33:13.139Z,35.30
2019-03-20T10:35:49.692Z,34.58
2019-03-20T10:38:07.012Z,34.41
2019-03-20T10:40:33.088Z,34.85
2019-03-20T10:42:59.101Z,35.39
2019-03-20T10:45:25.256Z,34.80
2019-03-20T10:47:53.062Z,34.51
2019-03-20T10:50:21.762Z,34.15
2019-03-20T10:52:47.705Z,33.57
2019-03-20T10:55:13.783Z,33.85
2019-03-20T10:57:39.970Z,33.14
2019-03-20T11:00:12.995Z,32.50
2019-03-20T11:02:38.858Z,33.11
2019-03-20T11:05:06.194Z,32.80
2019-03-20T11:07:31.990Z,32.26
2019-03-20T11:09:57.836Z,32.67
2019-03-20T11:12:23.800Z,32.55
2019-03-20T11:14:49.856Z,32.84
2019-03-20T11:17:15.891Z,32.77
2019-03-20T11:19:41.714Z,32.81
2019-03-20T11:22:18.212Z,33.85
2019-03-20T11:24:35.558Z,34.18
2019-03-20T11:27:01.496Z,33.60
2019-03-20T11:29:28.962Z,33.38
2019-03-20T11:31:54.973Z,32.92
2019-03-20T11:34:20.828Z,32.45
2019-03-20T11:36:46.658Z,32.27
2019-03-20T11:39:12.560Z,33.22
2019-03-20T11:41:38.511Z,32.39
2019-03-20T11:44:04.672Z,31.70
2019-03-20T11:46:30.789Z,31.92
2019-03-20T11:48:56.618Z,31.89
2019-03-20T11:51:22.526Z,30.71
2019-03-20T11:53:48.526Z,29.24
2019-03-20T11:56:14.368Z,29.14
2019-03-20T11:58:40.479Z,28.44
2019-03-20T12:01:06.404Z,28.31
2019-03-20T12:03:32.256Z,29.41
2019-03-20T12:05:58.321Z,29.14
2019-03-20T12:08:24.267Z,31.07
2019-03-20T12:10:50.113Z,30.79
2019-03-20T12:13:16.020Z,29.77
2019-03-20T12:15:41.854Z,29.22
2019-03-20T12:18:07.801Z,30.34
2019-03-20T12:20:33.759Z,30.05
2019-03-20T12:22:59.731Z,30.19
2019-03-20T12:25:34.733Z,30.25
2019-03-20T12:28:00.663Z,29.91
2019-03-20T12:30:31.993Z,30.46
2019-03-20T12:32:58.261Z,31.55
2019-03-20T12:35:26.555Z,31.00
2019-03-20T12:37:52.582Z,31.59
2019-03-20T12:40:21.429Z,31.83
2019-03-20T12:42:47.656Z,30.81
2019-03-20T12:45:16.613Z,28.68
2019-03-20T12:47:42.587Z,28.19
2019-03-20T12:50:10.871Z,27.60
2019-03-20T12:52:36.683Z,27.25
2019-03-20T12:55:05.577Z,28.65
2019-03-20T12:57:31.477Z,27.05
2019-03-20T12:59:57.643Z,25.16
2019-03-20T13:02:23.654Z,26.73
2019-03-20T13:04:49.597Z,29.02
2019-03-20T13:07:19.437Z,30.47
2019-03-20T13:09:45.408Z,30.71
2019-03-20T13:12:11.474Z,29.43
2019-03-20T13:14:37.553Z,29.37
2019-03-20T13:17:03.871Z,31.09
2019-03-20T13:19:29.679Z,30.75
2019-03-20T13:21:55.766Z,30.83
2019-03-20T13:24:21.744Z,30.98
2019-03-20T13:26:47.796Z,30.99
2019-03-20T13:29:13.739Z,28.90
2019-03-20T13:31:39.832Z,25.42
2019-03-20T13:34:05.672Z,26.21
2019-03-20T13:36:31.888Z,27.32
2019-03-20T13:38:57.840Z,24.61
2019-03-20T13:41:23.902Z,28.46
2019-03-20T13:43:49.891Z,26.31
2019-03-20T13:46:15.807Z,27.35
2019-03-20T13:48:41.927Z,30.40
2019-03-20T13:51:08.621Z,30.31
2019-03-20T13:53:45.807Z,29.80
2019-03-20T13:56:12.674Z,29.84
2019-03-20T13:58:38.641Z,26.21
2019-03-20T14:01:04.876Z,24.56
2019-03-20T14:03:31.048Z,22.47
2019-03-20T14:05:56.991Z,21.91
2019-03-20T14:08:23.393Z,20.65
2019-03-20T14:10:50.597Z,22.64
2019-03-20T14:13:17.029Z,21.77
2019-03-20T14:15:43.292Z,20.90
2019-03-20T14:18:09.269Z,22.68
2019-03-20T14:20:35.280Z,22.67
2019-03-20T14:23:01.507Z,23.58
2019-03-20T14:25:27.612Z,20.75
2019-03-20T14:27:53.671Z,22.55
2019-03-20T14:30:29.606Z,23.62
2019-03-20T14:32:55.711Z,23.08
2019-03-20T14:35:21.896Z,23.58
2019-03-20T14:37:48.048Z,20.34
2019-03-20T14:40:16.313Z,22.62
2019-03-20T14:42:42.489Z,21.47
2019-03-20T14:45:11.002Z,22.13
2019-03-20T14:47:42.114Z,20.51
2019-03-20T14:50:17.660Z,18.19
2019-03-20T14:52:43.850Z,17.16
2019-03-20T14:55:11.656Z,20.98
2019-03-20T14:57:37.811Z,19.83
2019-03-20T15:00:16.588Z,21.05
2019-03-20T15:02:42.966Z,19.86
2019-03-20T15:05:09.024Z,19.03
2019-03-20T15:07:35.054Z,20.47
2019-03-20T15:10:01.375Z,18.31
2019-03-20T15:12:27.361Z,19.28
2019-03-20T15:14:53.222Z,21.77
2019-03-20T15:17:19.197Z,23.90
2019-03-20T15:19:45.353Z,20.39
2019-03-20T15:22:11.194Z,25.84
2019-03-20T15:24:37.052Z,23.40
2019-03-20T15:27:03.132Z,24.82
2019-03-20T15:29:29.116Z,24.95
2019-03-20T15:31:55.079Z,24.16
2019-03-20T15:34:21.168Z,22.36
2019-03-20T15:36:47.032Z,21.17
2019-03-20T15:39:13.111Z,21.45
2019-03-20T15:41:38.935Z,26.22
2019-03-20T15:44:04.895Z,24.14
2019-03-20T15:46:30.955Z,22.05
2019-03-20T15:48:56.928Z,23.03
2019-03-20T15:51:22.984Z,22.00
2019-03-20T15:53:48.954Z,22.50
2019-03-20T15:56:14.898Z,24.48
2019-03-20T15:58:42.401Z,25.07
2019-03-20T16:01:08.360Z,25.65
2019-03-20T16:03:41.108Z,27.68
2019-03-20T16:06:06.935Z,25.85
2019-03-20T16:08:32.876Z,27.02
2019-03-20T16:11:06.261Z,26.74
2019-03-20T16:13:26.755Z,25.07
2019-03-20T16:15:52.814Z,26.17
2019-03-20T16:18:18.715Z,25.64
2019-03-20T16:20:44.559Z,25.89
2019-03-20T16:23:10.628Z,25.52
2019-03-20T16:25:36.628Z,25.97
2019-03-20T16:28:02.785Z,25.28
2019-03-20T16:30:31.477Z,24.15
2019-03-20T16:32:57.579Z,24.84
2019-03-20T16:35:23.636Z,24.51
2019-03-20T16:37:49.493Z,25.43
2019-03-20T16:40:24.182Z,24.43
2019-03-20T16:42:50.168Z,25.78
2019-03-20T16:45:19.147Z,24.91
2019-03-20T16:47:45.295Z,25.79
2019-03-20T16:50:14.533Z,25.80
2019-03-20T16:52:40.341Z,25.54
2019-03-20T16:55:09.050Z,27.90
2019-03-20T16:57:35.237Z,29.67
2019-03-20T17:00:03.515Z,30.00
2019-03-20T17:02:29.725Z,30.33
2019-03-20T17:04:55.680Z,30.98
2019-03-20T17:07:21.618Z,31.00
2019-03-20T17:09:47.853Z,31.09
2019-03-20T17:12:13.911Z,31.32
2019-03-20T17:14:41.725Z,31.33
2019-03-20T17:17:07.903Z,31.41
2019-03-20T17:19:33.720Z,31.83
2019-03-20T17:21:59.709Z,31.79
2019-03-20T17:24:25.674Z,31.82
2019-03-20T17:26:51.642Z,31.62
2019-03-20T17:29:17.706Z,31.88
2019-03-20T17:31:43.680Z,31.41
2019-03-20T17:34:09.543Z,31.61
2019-03-20T17:36:35.491Z,31.76
2019-03-20T17:39:01.462Z,31.71
2019-03-20T17:41:36.294Z,32.07
2019-03-20T17:43:55.017Z,31.95
2019-03-20T17:46:21.009Z,31.97
2019-03-20T17:48:47.128Z,32.47
2019-03-20T17:51:13.083Z,32.99
2019-03-20T17:53:39.033Z,33.07
2019-03-20T17:56:05.110Z,32.81
2019-03-20T17:58:30.956Z,32.60
2019-03-20T18:00:57.119Z,32.63
2019-03-20T18:03:23.309Z,33.14
2019-03-20T18:05:49.418Z,33.26
2019-03-20T18:08:15.376Z,33.49
2019-03-20T18:10:41.742Z,33.51
2019-03-20T18:13:07.942Z,33.67
2019-03-20T18:15:34.404Z,33.33
2019-03-20T18:18:00.859Z,33.14
2019-03-20T18:20:26.806Z,33.22
2019-03-20T18:22:52.693Z,33.24
2019-03-20T18:25:18.791Z,33.17
2019-03-20T18:27:44.900Z,33.38
2019-03-20T18:30:17.574Z,33.67
2019-03-20T18:32:43.747Z,34.05
2019-03-20T18:35:09.841Z,33.70
2019-03-20T18:37:35.891Z,33.63
2019-03-20T18:40:03.563Z,33.59
2019-03-20T18:42:29.504Z,34.60
2019-03-20T18:44:55.478Z,34.90
2019-03-20T18:47:21.423Z,35.15
2019-03-20T18:49:47.529Z,35.54
2019-03-20T18:52:13.441Z,35.81
2019-03-20T18:54:39.496Z,35.68
2019-03-20T18:57:05.466Z,35.42
2019-03-20T18:59:31.415Z,35.33
2019-03-20T19:01:57.402Z,35.99
2019-03-20T19:04:23.294Z,35.21
2019-03-20T19:06:49.298Z,34.83
2019-03-20T19:09:15.160Z,35.18
2019-03-20T19:11:41.373Z,35.65
2019-03-20T19:14:07.164Z,35.32
2019-03-20T19:16:33.266Z,35.58
2019-03-20T19:18:59.293Z,35.88
2019-03-20T19:21:25.179Z,35.78
2019-03-20T19:23:51.137Z,35.65
2019-03-20T19:26:17.512Z,36.07
2019-03-20T19:28:43.449Z,36.32
2019-03-20T19:31:09.609Z,36.76
2019-03-20T19:33:35.583Z,35.12
2019-03-20T19:36:01.519Z,34.78
2019-03-20T19:38:34.791Z,34.12
2019-03-20T19:40:55.509Z,34.05
2019-03-20T19:43:22.754Z,34.46
2019-03-20T19:45:49.486Z,33.98
2019-03-20T19:48:15.334Z,34.56
2019-03-20T19:50:41.318Z,34.52
2019-03-20T19:53:07.240Z,34.74
2019-03-20T19:55:33.409Z,34.82
2019-03-20T19:57:59.155Z,35.23
2019-03-20T20:00:26.784Z,35.86
2019-03-20T20:02:53.043Z,36.71
2019-03-20T20:05:19.107Z,36.69
2019-03-20T20:07:44.946Z,36.16
2019-03-20T20:10:18.023Z,36.22
2019-03-20T20:12:44.235Z,36.55
2019-03-20T20:15:27.256Z,36.82
2019-03-20T20:17:53.453Z,37.43
2019-03-20T20:20:20.702Z,37.22
2019-03-20T20:22:46.821Z,39.26
2019-03-20T20:25:12.695Z,39.17
2019-03-20T20:27:38.647Z,38.20
2019-03-20T20:30:08.387Z,37.85
2019-03-20T20:32:34.549Z,38.26
2019-03-20T20:35:00.409Z,38.35
2019-03-20T20:37:26.861Z,38.59
2019-03-20T20:39:52.806Z,38.55
2019-03-20T20:42:18.839Z,38.93
2019-03-20T20:44:44.823Z,39.93
2019-03-20T20:47:10.795Z,40.39
2019-03-20T20:49:36.745Z,40.52
2019-03-20T20:52:02.804Z,40.78
2019-03-20T20:54:28.891Z,40.90
2019-03-20T20:56:54.876Z,40.54
2019-03-20T20:59:20.736Z,41.40
2019-03-20T21:01:46.805Z,41.50
2019-03-20T21:04:12.661Z,40.96
2019-03-20T21:06:38.608Z,41.27
2019-03-20T21:09:06.209Z,40.31
2019-03-20T21:11:32.030Z,40.33
2019-03-20T21:13:57.930Z,40.76
2019-03-20T21:16:23.795Z,40.89
2019-03-20T21:18:56.506Z,40.67
2019-03-20T21:21:22.352Z,40.67
2019-03-20T21:24:25.923Z,41.49
2019-03-20T21:27:05.502Z,42.07
2019-03-20T21:29:37.870Z,43.09
2019-03-20T21:32:16.862Z,43.60
2019-03-20T21:35:12.332Z,43.47
2019-03-20T21:38:03.515Z,44.44
2019-03-20T21:40:35.135Z,44.77
2019-03-20T21:43:36.718Z,45.18
2019-03-20T21:46:06.363Z,45.33
2019-03-20T21:48:32.294Z,44.89
2019-03-20T21:51:14.888Z,45.47
2019-03-20T21:53:47.458Z,45.96
2019-03-20T21:56:26.220Z,45.91
2019-03-20T21:59:18.832Z,46.00
2019-03-20T22:02:11.759Z,45.87
2019-03-20T22:04:37.597Z,46.13
2019-03-20T22:07:07.867Z,45.92
2019-03-20T22:09:43.640Z,46.26
2019-03-20T22:12:19.250Z,46.03
2019-03-20T22:14:48.955Z,46.18
2019-03-20T22:17:24.818Z,46.27
2019-03-20T22:19:57.023Z,46.36
2019-03-20T22:22:38.788Z,46.19
2019-03-20T22:25:42.091Z,46.92
2019-03-20T22:28:26.965Z,47.23
2019-03-20T22:30:52.920Z,47.51
2019-03-20T22:33:55.989Z,47.27
2019-03-20T22:36:21.839Z,47.47
2019-03-20T22:39:08.168Z,47.48
2019-03-20T22:41:46.939Z,47.39
2019-03-20T22:44:12.919Z,47.27
2019-03-20T22:47:05.466Z,46.64
2019-03-20T22:49:53.125Z,47.12
2019-03-20T22:52:37.869Z,47.40
2019-03-20T22:55:22.186Z,47.87
2019-03-20T22:58:08.586Z,47.31
2019-03-20T23:00:34.767Z,46.55
2019-03-20T23:03:12.971Z,46.83
2019-03-20T23:05:38.818Z,47.43
2019-03-20T23:08:10.870Z,47.62
2019-03-20T23:10:36.694Z,47.96
2019-03-20T23:13:04.419Z,48.51
2019-03-20T23:15:30.393Z,48.67
2019-03-20T23:17:56.498Z,48.69
2019-03-20T23:20:25.782Z,49.05
2019-03-20T23:22:51.635Z,48.94
2019-03-20T23:25:17.569Z,48.91
2019-03-20T23:27:43.608Z,48.70
2019-03-20T23:30:16.156Z,48.42
2019-03-20T23:32:41.986Z,48.96
2019-03-20T23:35:08.000Z,49.24
2019-03-20T23:37:33.830Z,49.35
2019-03-20T23:39:59.769Z,49.73
2019-03-20T23:42:25.823Z,49.52
2019-03-20T23:44:51.777Z,49.67
2019-03-20T23:47:21.396Z,48.94
2019-03-20T23:49:47.320Z,48.94
2019-03-20T23:52:13.146Z,49.70
2019-03-20T23:54:43.366Z,50.04
2019-03-20T23:57:09.215Z,50.29
2019-03-20T23:59:35.101Z,50.43
